Weather at Minas Airport [CLOSED]

Public forecast

Using degrees Celsius for public forecast. Weather courtesy of forecast.io.

Closest aviation weather report (METAR) to Minas Airport

Closest report is Ignacio Agramonte International Airport, 18.3 nm (33.8 km) WSW. Retrieved 2021/09/25 23:51 UTC (13 minutes ago):

MUCM 252351Z VRB01KT 9000 SCT020 26/24 Q1015

Closest aviation forecast (TAF) to Minas Airport

Closest forecast is Ignacio Agramonte International Airport, 18.3 nm (33.8 km) WSW. Retrieved 2021-09-26 00:07 UTC (0 seconds ago):

TAF MUCM 252300Z 2600/2624 VRB03KT 9000 SCT018 BECMG 2615/2617 05008KT TEMPO 2618/2624 5000 TSRA SCT020CB BKN030